Time;durP1;ratioP1;P1;durP2;ratioP2;P2;SDS_P1;SDS_P2;PMS_P1;PMS_P2;Temp;Humidity;BMP_temperature;BMP_pressure;BME280_temperature;BME280_humidity;BME280_pressure;Samples;Min_cycle;Max_cycle;Signal;HPM_P1;HPM_P2
2023/01/21 00:00:38;;;;;;;25.90;12.00;;;;;;;-2.12;91.79;102451.13;5075752;28;20105;-76
2023/01/21 00:03:03;;;;;;;31.70;14.53;;;;;;;-2.13;91.67;102464.69;5072851;28;20054;-76
2023/01/21 00:05:28;;;;;;;28.90;13.10;;;;;;;-2.12;91.78;102463.88;5054017;28;20036;-76
2023/01/21 00:07:54;;;;;;;33.53;14.63;;;;;;;-2.12;91.38;102471.53;5073803;28;20123;-76
2023/01/21 00:10:19;;;;;;;30.23;13.60;;;;;;;-2.13;92.28;102463.00;5073401;28;20060;-75
2023/01/21 00:12:45;;;;;;;25.90;12.40;;;;;;;-2.11;91.63;102469.84;5072841;28;20023;-74
2023/01/21 00:15:10;;;;;;;30.50;13.33;;;;;;;-2.12;91.19;102476.63;5073533;28;20084;-75
2023/01/21 00:17:35;;;;;;;29.73;13.17;;;;;;;-2.13;91.56;102483.38;5070656;28;20042;-75
2023/01/21 00:20:05;;;;;;;30.40;13.53;;;;;;;-2.12;91.56;102484.28;5072341;28;20032;-75
2023/01/21 00:22:32;;;;;;;28.90;13.63;;;;;;;-2.14;91.95;102489.31;5061324;28;20033;-75
2023/01/21 00:24:57;;;;;;;34.00;14.20;;;;;;;-2.14;91.67;102494.41;5052087;28;20181;-75
2023/01/21 00:27:22;;;;;;;35.07;15.07;;;;;;;-2.15;91.16;102492.66;5057562;28;20270;-75
2023/01/21 00:29:47;;;;;;;31.53;14.17;;;;;;;-2.15;91.30;102494.31;5052876;28;20380;-75
2023/01/21 00:32:13;;;;;;;36.10;15.07;;;;;;;-2.15;92.15;102489.22;5067156;28;20016;-75
2023/01/21 00:34:39;;;;;;;32.90;14.80;;;;;;;-2.15;91.44;102494.31;5053056;28;20399;-75
2023/01/21 00:37:04;;;;;;;30.53;13.47;;;;;;;-2.16;91.83;102492.56;5055385;28;20025;-75
2023/01/21 00:39:29;;;;;;;37.10;14.60;;;;;;;-2.16;91.73;102502.75;5058422;28;20025;-75
2023/01/21 00:41:55;;;;;;;36.63;15.93;;;;;;;-2.18;91.19;102504.34;5070168;28;20475;-76
2023/01/21 00:44:20;;;;;;;39.43;16.77;;;;;;;-2.20;91.82;102500.84;5063960;28;20025;-75
2023/01/21 00:46:45;;;;;;;33.37;15.27;;;;;;;-2.20;91.72;102505.94;5063527;28;20103;-75
2023/01/21 00:49:10;;;;;;;32.73;15.60;;;;;;;-2.20;92.13;102505.94;5062146;28;20439;-75
2023/01/21 00:51:36;;;;;;;38.03;15.93;;;;;;;-2.20;92.21;102505.94;5058097;28;20107;-75
2023/01/21 00:54:01;;;;;;;34.33;15.27;;;;;;;-2.23;91.89;102511.75;5054386;28;20031;-75
2023/01/21 00:56:26;;;;;;;35.77;16.20;;;;;;;-2.23;91.44;102516.00;5056846;28;20024;-75
2023/01/21 00:58:51;;;;;;;37.00;16.40;;;;;;;-2.25;91.30;102523.53;5056371;28;20048;-75
2023/01/21 01:01:19;;;;;;;41.97;17.40;;;;;;;-2.26;91.57;102526.00;5071663;28;20029;-74
2023/01/21 01:03:45;;;;;;;37.13;16.27;;;;;;;-2.30;91.94;102524.94;5038085;28;20032;-74
2023/01/21 01:06:17;;;;;;;38.03;15.90;;;;;;;-2.30;91.81;102538.59;5071070;28;20063;-74
2023/01/21 01:08:43;;;;;;;35.90;16.05;;;;;;;-2.33;91.64;102547.75;5068598;28;20040;-74
2023/01/21 01:11:09;;;;;;;37.90;16.43;;;;;;;-2.34;91.62;102549.41;5056897;28;20052;-74
2023/01/21 01:13:35;;;;;;;36.53;16.40;;;;;;;-2.36;91.27;102561.19;5062116;28;20477;-74
2023/01/21 01:16:01;;;;;;;37.93;15.97;;;;;;;-2.38;91.37;102561.91;5070520;28;20029;-74
2023/01/21 01:18:29;;;;;;;38.53;16.20;;;;;;;-2.41;91.94;102571.91;5064020;28;20399;-74
2023/01/21 01:20:55;;;;;;;40.37;17.53;;;;;;;-2.42;91.89;102572.72;5059909;28;20024;-74
2023/01/21 01:23:20;;;;;;;36.67;15.63;;;;;;;-2.45;91.82;102587.03;5066482;28;20029;-75
2023/01/21 01:25:56;;;;;;;39.53;17.23;;;;;;;-2.45;91.66;102587.03;5061766;28;20098;-74
2023/01/21 01:28:22;;;;;;;44.40;17.77;;;;;;;-2.45;92.04;102594.69;5070938;28;20101;-75
2023/01/21 01:30:47;;;;;;;39.83;16.97;;;;;;;-2.46;92.34;102594.59;5060911;28;20078;-75
2023/01/21 01:33:12;;;;;;;37.53;16.43;;;;;;;-2.44;91.88;102595.56;5072265;28;20032;-74
2023/01/21 01:35:37;;;;;;;40.73;16.17;;;;;;;-2.46;92.34;102609.91;5064789;28;20435;-75
2023/01/21 01:38:06;;;;;;;40.40;17.70;;;;;;;-2.47;92.20;102610.69;5065066;28;20029;-75
2023/01/21 01:40:32;;;;;;;40.67;16.77;;;;;;;-2.49;91.78;102614.81;5062763;28;20463;-74
2023/01/21 01:42:58;;;;;;;40.23;17.23;;;;;;;-2.49;92.49;102622.47;5064155;28;20025;-75
2023/01/21 01:45:23;;;;;;;39.50;16.87;;;;;;;-2.50;92.31;102628.34;5058936;28;20036;-74
2023/01/21 01:47:59;;;;;;;41.30;17.70;;;;;;;-2.51;92.23;102622.38;5067320;28;20099;-74
2023/01/21 01:50:29;;;;;;;35.90;16.73;;;;;;;-2.50;92.41;102626.69;5072519;28;20032;-74
2023/01/21 01:52:58;;;;;;;41.90;18.63;;;;;;;-2.51;92.01;102630.03;5066387;28;20027;-75
2023/01/21 01:55:24;;;;;;;41.43;17.97;;;;;;;-2.49;92.78;102635.19;5054738;28;20036;-74
2023/01/21 01:57:53;;;;;;;41.93;18.70;;;;;;;-2.51;92.11;102640.22;5066054;28;20032;-74
2023/01/21 02:00:19;;;;;;;41.20;16.83;;;;;;;-2.52;91.87;102645.22;5068328;28;20024;-75
2023/01/21 02:03:43;;;;;;;43.73;19.47;;;;;;;-2.53;92.39;102639.25;5063839;28;20421;-74
2023/01/21 02:05:33;;;;;;;43.63;18.97;;;;;;;-2.56;92.03;102644.19;5055689;28;20037;-74
2023/01/21 02:07:59;;;;;;;43.53;19.23;;;;;;;-2.56;92.82;102638.22;5059774;28;20025;-74
2023/01/21 02:10:24;;;;;;;39.87;17.80;;;;;;;-2.55;92.41;102645.03;5072633;28;20063;-74
2023/01/21 02:12:50;;;;;;;42.33;18.00;;;;;;;-2.55;91.92;102648.47;5068017;28;20116;-74
2023/01/21 02:15:15;;;;;;;39.30;18.23;;;;;;;-2.54;91.98;102646.78;5060169;28;20052;-75
2023/01/21 02:18:14;;;;;;;44.23;19.10;;;;;;;-2.55;92.32;102650.13;5068636;28;20090;-74
2023/01/21 02:21:27;;;;;;;45.97;19.40;;;;;;;-2.58;91.89;102652.53;5066441;28;20021;-74
2023/01/21 02:24:17;;;;;;;47.17;20.03;;;;;;;-2.63;92.20;102658.22;5055186;28;20609;-74
2023/01/21 02:26:56;;;;;;;43.77;19.37;;;;;;;-2.66;92.32;102660.59;5058749;28;20035;-74
2023/01/21 02:29:39;;;;;;;43.83;19.47;;;;;;;-2.67;92.25;102658.84;5072990;28;20074;-74
2023/01/21 02:32:35;;;;;;;46.17;18.03;;;;;;;-2.66;92.29;102673.34;5063368;28;20094;-74
2023/01/21 02:35:18;;;;;;;47.03;18.33;;;;;;;-2.68;92.23;102680.00;5070881;28;20039;-74
2023/01/21 02:38:15;;;;;;;41.00;18.00;;;;;;;-2.67;92.33;102679.22;5064359;28;20125;-74
2023/01/21 02:41:02;;;;;;;42.53;18.20;;;;;;;-2.67;92.57;102679.22;5045969;28;20135;-74
2023/01/21 02:43:46;;;;;;;46.50;19.17;;;;;;;-2.68;91.88;102680.00;5054019;28;20327;-74
2023/01/21 02:46:17;;;;;;;40.00;17.17;;;;;;;-2.68;91.76;102681.69;5060875;28;20537;-74
2023/01/21 02:48:55;;;;;;;41.90;18.23;;;;;;;-2.70;91.84;102691.78;5073061;28;20043;-74
2023/01/21 02:51:22;;;;;;;45.93;19.13;;;;;;;-2.73;92.17;102696.69;5056138;28;20472;-74
2023/01/21 02:53:47;;;;;;;38.23;17.20;;;;;;;-2.76;92.53;102699.94;5058790;28;20020;-75
2023/01/21 02:56:17;;;;;;;35.93;15.80;;;;;;;-2.77;91.95;102699.88;5069455;28;20089;-74
2023/01/21 02:58:50;;;;;;;40.57;18.07;;;;;;;-2.78;92.22;102704.06;5070021;28;20104;-74
2023/01/21 03:01:41;;;;;;;37.97;17.27;;;;;;;-2.80;92.74;102698.00;5065412;28;20020;-74
2023/01/21 03:04:25;;;;;;;34.97;15.27;;;;;;;-2.79;92.01;102701.44;5055007;28;20025;-75
2023/01/21 03:07:20;;;;;;;41.17;17.70;;;;;;;-2.80;91.95;102709.84;5066792;28;20041;-74
2023/01/21 03:09:45;;;;;;;41.47;17.20;;;;;;;-2.83;91.69;102705.47;5060677;28;20059;-74
2023/01/21 03:12:38;;;;;;;41.97;17.50;;;;;;;-2.86;92.36;102709.47;5065862;28;20454;-75
2023/01/21 03:17:59;;;;;;;41.40;17.00;;;;;;;-2.93;92.43;102718.44;5061927;28;20549;-75
2023/01/21 03:20:27;;;;;;;43.40;17.63;;;;;;;-2.96;92.33;102716.59;5069290;28;20055;-74
2023/01/21 03:22:59;;;;;;;40.40;16.73;;;;;;;-2.96;91.87;102719.13;5069502;28;20044;-74
2023/01/21 03:25:27;;;;;;;44.33;17.63;;;;;;;-2.99;92.43;102721.50;5072675;28;20037;-74
2023/01/21 03:27:54;;;;;;;40.83;17.13;;;;;;;-3.00;92.55;102729.06;5062428;28;20020;-74
2023/01/21 03:30:23;;;;;;;41.47;16.70;;;;;;;-3.02;92.21;102734.03;5066281;28;20024;-74
2023/01/21 03:32:50;;;;;;;42.70;17.43;;;;;;;-3.05;92.41;102723.66;5062435;28;20494;-74
2023/01/21 03:35:30;;;;;;;40.70;16.93;;;;;;;-3.06;92.51;102738.06;5061622;28;20028;-74
2023/01/21 03:38:09;;;;;;;36.77;15.40;;;;;;;-3.06;92.71;102734.63;5064751;28;20028;-74
2023/01/21 03:40:42;;;;;;;40.87;16.43;;;;;;;-3.04;92.20;102745.78;5061658;28;20032;-74
2023/01/21 03:43:08;;;;;;;40.20;16.30;;;;;;;-3.06;92.36;102744.81;5063436;28;20032;-74
2023/01/21 03:45:40;;;;;;;44.80;18.43;;;;;;;-3.03;92.60;102746.69;5058980;28;20021;-74
2023/01/21 03:48:23;;;;;;;42.83;17.63;;;;;;;-3.06;91.77;102747.34;5046697;28;20021;-74
2023/01/21 03:50:55;;;;;;;36.47;15.70;;;;;;;-3.06;92.67;102747.34;5052888;28;20024;-74
2023/01/21 03:53:21;;;;;;;37.67;15.20;;;;;;;-3.08;92.06;102743.84;5058221;28;20107;-74
2023/01/21 03:55:49;;;;;;;40.30;16.87;;;;;;;-3.09;92.54;102750.59;5052738;28;20113;-74
2023/01/21 03:58:14;;;;;;;39.63;17.10;;;;;;;-3.12;92.38;102757.19;5046940;28;20033;-74
2023/01/21 04:00:40;;;;;;;38.97;16.57;;;;;;;-3.13;92.32;102752.88;5055912;28;20357;-74
2023/01/21 04:03:05;;;;;;;39.20;15.83;;;;;;;-3.15;91.85;102762.94;5043205;28;20024;-74
2023/01/21 04:05:30;;;;;;;41.83;16.00;;;;;;;-3.13;92.19;102763.06;5060661;28;20029;-74
2023/01/21 04:07:55;;;;;;;41.40;16.53;;;;;;;-3.14;91.85;102761.28;5071252;28;20028;-74
2023/01/21 04:10:21;;;;;;;43.33;17.03;;;;;;;-3.15;92.73;102764.63;5059407;28;20045;-74
2023/01/21 04:12:46;;;;;;;39.17;16.27;;;;;;;-3.15;92.70;102762.06;5059864;28;20054;-74
2023/01/21 04:15:11;;;;;;;39.67;15.67;;;;;;;-3.18;92.33;102761.88;5067086;28;20507;-74
2023/01/21 04:17:36;;;;;;;38.40;15.37;;;;;;;-3.15;92.57;102762.06;5069241;28;20039;-74
2023/01/21 04:20:02;;;;;;;38.30;15.00;;;;;;;-3.16;92.58;102771.38;5060339;28;20082;-74
2023/01/21 04:22:27;;;;;;;31.27;13.30;;;;;;;-3.13;92.63;102775.78;5062631;28;20051;-74
2023/01/21 04:24:52;;;;;;;35.47;14.37;;;;;;;-3.12;92.52;102777.53;5060203;28;20028;-74
2023/01/21 04:27:18;;;;;;;39.87;15.23;;;;;;;-3.13;92.83;102778.34;5065465;28;20032;-74
2023/01/21 04:29:43;;;;;;;34.33;14.70;;;;;;;-3.16;92.32;102781.53;5063192;28;20046;-74
2023/01/21 04:32:08;;;;;;;34.47;14.13;;;;;;;-3.18;92.50;102782.25;5053147;28;20032;-74
2023/01/21 04:34:33;;;;;;;36.60;14.90;;;;;;;-3.20;92.33;102783.03;5064327;28;20039;-74
2023/01/21 04:36:59;;;;;;;40.67;15.90;;;;;;;-3.21;92.50;102783.81;5042509;28;20089;-74
2023/01/21 04:39:24;;;;;;;33.83;14.10;;;;;;;-3.24;92.87;102778.53;5063590;28;20036;-74
2023/01/21 04:41:49;;;;;;;40.63;15.70;;;;;;;-3.24;92.74;102780.19;5055084;28;20032;-74
2023/01/21 04:44:14;;;;;;;39.47;16.23;;;;;;;-3.25;92.50;102779.34;5056593;28;20064;-74
2023/01/21 04:46:40;;;;;;;37.93;15.57;;;;;;;-3.26;92.90;102775.03;5062113;28;20040;-74
2023/01/21 04:49:05;;;;;;;41.27;17.00;;;;;;;-3.27;92.94;102787.63;5070167;28;20039;-74
2023/01/21 04:51:30;;;;;;;40.60;14.87;;;;;;;-3.27;93.29;102780.91;5066980;28;20028;-74
2023/01/21 04:53:56;;;;;;;35.13;14.27;;;;;;;-3.27;92.66;102783.44;5056146;28;21214;-74
2023/01/21 04:56:21;;;;;;;37.53;14.97;;;;;;;-3.28;92.77;102791.88;5064763;28;20032;-74
2023/01/21 04:58:46;;;;;;;38.83;14.97;;;;;;;-3.30;92.94;102792.53;5069363;28;20035;-74
2023/01/21 05:01:12;;;;;;;39.43;15.10;;;;;;;-3.30;92.96;102800.16;5058326;28;20067;-74
2023/01/21 05:03:37;;;;;;;37.83;15.23;;;;;;;-3.32;92.45;102797.53;5069150;28;20180;-74
2023/01/21 05:06:02;;;;;;;37.30;14.97;;;;;;;-3.34;92.58;102806.75;5068005;28;20040;-74
2023/01/21 05:08:27;;;;;;;37.37;13.73;;;;;;;-3.36;92.88;102805.75;5068423;28;20051;-74
2023/01/21 05:10:53;;;;;;;36.93;14.57;;;;;;;-3.36;92.78;102808.31;5068110;28;20123;-74
2023/01/21 05:13:18;;;;;;;35.23;13.67;;;;;;;-3.36;93.23;102813.41;5070565;28;20052;-74
2023/01/21 05:15:43;;;;;;;34.33;12.97;;;;;;;-3.36;92.53;102818.47;5066547;28;20032;-74
2023/01/21 05:18:09;;;;;;;37.17;14.80;;;;;;;-3.38;92.66;102812.41;5065194;28;20048;-74
2023/01/21 05:20:34;;;;;;;36.13;14.77;;;;;;;-3.39;92.67;102816.63;5066001;28;20488;-74
2023/01/21 05:22:59;;;;;;;37.27;13.53;;;;;;;-3.39;93.04;102818.28;5069282;28;20032;-74
2023/01/21 05:25:24;;;;;;;33.97;13.07;;;;;;;-3.40;92.98;102824.16;5064874;28;20025;-74
2023/01/21 05:27:54;;;;;;;35.50;14.07;;;;;;;-3.41;92.60;102823.28;5068303;28;20368;-74
2023/01/21 05:30:20;;;;;;;31.47;13.93;;;;;;;-3.41;92.47;102835.13;5069525;28;20035;-74
2023/01/21 05:32:51;;;;;;;34.43;13.60;;;;;;;-3.42;92.70;102834.25;5064483;28;20025;-74
2023/01/21 05:35:21;;;;;;;35.58;14.45;;;;;;;-3.44;92.68;102832.41;5068232;28;20115;-74
2023/01/21 05:37:47;;;;;;;42.30;14.70;;;;;;;-3.47;92.82;102834.75;5064503;28;20024;-74
2023/01/21 05:40:16;;;;;;;35.07;13.90;;;;;;;-3.47;92.85;102840.69;5067216;28;20161;-74
2023/01/21 05:42:42;;;;;;;34.10;13.70;;;;;;;-3.48;92.79;102833.84;5054581;28;20119;-74
2023/01/21 05:45:09;;;;;;;38.13;14.07;;;;;;;-3.48;92.52;102843.16;5067804;28;20155;-74
2023/01/21 05:47:35;;;;;;;36.73;14.43;;;;;;;-3.49;92.98;102846.47;5061659;28;20029;-74
2023/01/21 05:50:00;;;;;;;37.23;15.20;;;;;;;-3.51;92.46;102846.41;5067866;28;20031;-74
2023/01/21 05:52:25;;;;;;;37.67;14.13;;;;;;;-3.53;92.79;102846.28;5069148;28;20028;-74
2023/01/21 05:54:50;;;;;;;34.07;14.17;;;;;;;-3.53;92.30;102851.38;5067740;28;20028;-74
2023/01/21 05:57:16;;;;;;;36.37;14.43;;;;;;;-3.54;92.28;102852.16;5062589;28;20472;-74
2023/01/21 05:59:41;;;;;;;36.00;14.67;;;;;;;-3.54;92.92;102859.78;5053701;28;20032;-74
2023/01/21 06:02:06;;;;;;;33.73;13.87;;;;;;;-3.55;92.34;102867.31;5064445;28;20096;-74
2023/01/21 06:04:31;;;;;;;37.37;14.47;;;;;;;-3.56;92.64;102866.44;5063464;28;20028;-74
2023/01/21 06:06:57;;;;;;;35.53;13.77;;;;;;;-3.57;92.50;102868.88;5059870;28;20024;-74
2023/01/21 06:09:22;;;;;;;37.23;14.13;;;;;;;-3.59;93.13;102878.97;5047659;28;20048;-74
2023/01/21 06:11:47;;;;;;;36.43;14.67;;;;;;;-3.60;92.66;102874.66;5061873;28;20104;-74
2023/01/21 06:14:13;;;;;;;35.23;14.10;;;;;;;-3.57;92.75;102876.50;5069466;28;20066;-74
2023/01/21 06:16:38;;;;;;;32.50;13.00;;;;;;;-3.57;92.75;102869.75;5044385;28;20039;-74
2023/01/21 06:19:03;;;;;;;31.63;12.60;;;;;;;-3.55;93.22;102864.78;5057724;28;20468;-74
2023/01/21 06:21:28;;;;;;;27.83;11.43;;;;;;;-3.54;93.17;102875.03;5067586;28;20024;-74
2023/01/21 06:23:54;;;;;;;37.23;13.97;;;;;;;-3.52;92.88;102878.56;5060328;28;20025;-74
2023/01/21 06:26:19;;;;;;;31.83;12.33;;;;;;;-3.52;93.05;102888.75;5043246;28;20396;-74
2023/01/21 06:28:44;;;;;;;36.40;13.40;;;;;;;-3.54;93.24;102885.22;5070574;28;20361;-74
2023/01/21 06:31:10;;;;;;;31.50;12.80;;;;;;;-3.57;93.05;102892.66;5070625;28;20029;-74
2023/01/21 06:33:35;;;;;;;31.70;12.57;;;;;;;-3.57;92.65;102894.31;5066527;28;20043;-74
2023/01/21 06:36:00;;;;;;;34.97;13.23;;;;;;;-3.60;92.92;102900.09;5073221;28;20107;-74
2023/01/21 06:38:25;;;;;;;34.70;13.83;;;;;;;-3.60;92.97;102902.66;5068373;28;20025;-74
2023/01/21 06:40:51;;;;;;;32.77;12.73;;;;;;;-3.60;92.79;102900.09;5063036;28;20385;-74
2023/01/21 06:43:16;;;;;;;34.37;13.23;;;;;;;-3.59;92.94;102906.97;5066861;28;20036;-74
2023/01/21 06:45:41;;;;;;;35.07;13.73;;;;;;;-3.58;93.09;102906.16;5056737;28;20052;-74
2023/01/21 06:48:07;;;;;;;37.10;14.40;;;;;;;-3.58;92.49;102902.75;5071173;28;20028;-75
2023/01/21 06:50:32;;;;;;;34.10;13.57;;;;;;;-3.59;92.93;102912.06;5054282;28;20533;-75
2023/01/21 06:52:57;;;;;;;39.07;14.93;;;;;;;-3.58;92.84;102918.88;5072040;28;20032;-74
2023/01/21 06:55:22;;;;;;;32.83;13.93;;;;;;;-3.59;93.07;102922.22;5067383;28;20032;-74
2023/01/21 06:57:48;;;;;;;35.17;13.80;;;;;;;-3.61;92.72;102925.44;5063782;28;20026;-74
2023/01/21 07:00:13;;;;;;;36.43;14.87;;;;;;;-3.62;93.06;102931.28;5056956;28;20029;-74
2023/01/21 07:02:39;;;;;;;34.57;13.73;;;;;;;-3.66;92.56;102933.63;5066809;28;20029;-74
2023/01/21 07:05:05;;;;;;;40.30;14.70;;;;;;;-3.67;92.77;102938.63;5060299;28;20048;-74
2023/01/21 07:07:30;;;;;;;35.27;13.70;;;;;;;-3.72;93.21;102951.03;5067010;28;20024;-74
2023/01/21 07:09:55;;;;;;;39.50;14.93;;;;;;;-3.75;92.91;102945.75;5066731;28;21791;-74
2023/01/21 07:12:21;;;;;;;41.43;15.57;;;;;;;-3.79;92.90;102948.84;5063659;28;20054;-74
2023/01/21 07:14:46;;;;;;;37.00;14.13;;;;;;;-3.78;93.00;102957.38;5059285;28;20037;-74
2023/01/21 07:17:11;;;;;;;39.10;14.47;;;;;;;-3.78;93.48;102955.72;5057845;28;20033;-74
2023/01/21 07:19:36;;;;;;;42.43;15.20;;;;;;;-3.78;93.06;102957.38;5065163;28;20028;-74
2023/01/21 07:22:02;;;;;;;39.73;15.23;;;;;;;-3.79;93.19;102964.13;5070251;28;20486;-74
2023/01/21 07:24:27;;;;;;;34.47;13.83;;;;;;;-3.78;93.07;102970.09;5069979;28;21453;-74
2023/01/21 07:26:52;;;;;;;35.13;12.67;;;;;;;-3.77;93.22;102972.72;5070396;28;20033;-74
2023/01/21 07:29:18;;;;;;;37.50;13.67;;;;;;;-3.75;92.89;102980.44;5067017;28;20493;-74
2023/01/21 07:31:43;;;;;;;41.33;15.40;;;;;;;-3.72;93.45;102983.22;5068977;28;20021;-74
2023/01/21 07:34:08;;;;;;;41.03;14.77;;;;;;;-3.69;93.37;102980.88;5071559;28;20020;-75
2023/01/21 07:36:34;;;;;;;33.83;13.00;;;;;;;-3.62;93.71;102987.25;5054521;28;20024;-74
2023/01/21 07:38:59;;;;;;;37.97;13.67;;;;;;;-3.58;93.68;102979.94;5058578;28;20032;-74
2023/01/21 07:41:24;;;;;;;38.93;14.50;;;;;;;-3.49;94.55;102978.78;5058523;28;20037;-74
2023/01/21 07:43:50;;;;;;;41.40;14.30;;;;;;;-3.44;94.48;102980.88;5055354;28;20059;-74
2023/01/21 07:46:20;;;;;;;41.17;14.87;;;;;;;-3.36;94.52;102991.56;5065683;28;20024;-74
2023/01/21 07:48:52;;;;;;;37.17;13.57;;;;;;;-3.31;94.88;102996.94;5071808;28;20047;-75
2023/01/21 07:51:17;;;;;;;;;;;;;;;-3.24;94.17;103001.66;5064785;28;20060;-74
2023/01/21 07:53:43;;;;;;;44.70;15.63;;;;;;;-3.22;93.83;103006.06;5055289;28;19971;-74
2023/01/21 07:56:09;;;;;;;42.50;15.30;;;;;;;-3.18;94.00;103006.28;5057646;28;20071;-74
2023/01/21 07:58:34;;;;;;;39.97;14.77;;;;;;;-3.16;94.46;103010.69;5061920;28;20059;-74
2023/01/21 08:01:08;;;;;;;45.30;17.40;;;;;;;-3.14;94.52;103013.34;5062521;28;20033;-74
2023/01/21 08:03:34;;;;;;;45.43;15.90;;;;;;;-3.11;94.59;103018.66;5069620;28;20044;-74
2023/01/21 08:05:59;;;;;;;48.10;16.60;;;;;;;-3.08;94.50;103019.72;5069636;28;20073;-74
2023/01/21 08:08:25;;;;;;;43.30;15.80;;;;;;;-3.01;94.96;103033.72;5066176;28;20028;-74
2023/01/21 08:10:52;;;;;;;43.50;16.30;;;;;;;-2.98;95.10;103031.41;5056357;28;20049;-74
2023/01/21 08:13:17;;;;;;;42.73;14.97;;;;;;;-2.92;95.04;103042.00;5066367;28;20039;-74
2023/01/21 08:15:42;;;;;;;49.80;17.20;;;;;;;-2.89;94.86;103043.84;5058039;28;20028;-74
2023/01/21 08:18:08;;;;;;;51.43;18.70;;;;;;;-2.85;95.43;103052.56;5069078;28;20036;-74
2023/01/21 08:20:33;;;;;;;44.30;16.77;;;;;;;-2.82;94.95;103053.63;5058195;28;20028;-74
2023/01/21 08:22:59;;;;;;;49.23;17.00;;;;;;;-2.79;94.61;103069.13;5065427;28;20056;-74
2023/01/21 08:25:25;;;;;;;41.77;15.53;;;;;;;-2.75;95.31;103077.88;5064724;28;20438;-74
2023/01/21 08:27:50;;;;;;;41.90;16.63;;;;;;;-2.72;95.24;103078.03;5056174;28;20484;-74
2023/01/21 08:30:16;;;;;;;41.63;15.80;;;;;;;-2.70;95.05;103088.34;5058360;28;20384;-74
2023/01/21 08:32:41;;;;;;;43.53;15.73;;;;;;;-2.67;95.58;103088.56;5055157;28;20021;-74
2023/01/21 08:35:07;;;;;;;48.60;17.33;;;;;;;-2.64;95.10;103094.72;5067366;28;20028;-74
2023/01/21 08:37:32;;;;;;;50.83;17.43;;;;;;;-2.64;95.89;103094.72;5067107;28;20040;-74
2023/01/21 08:39:57;;;;;;;46.37;16.20;;;;;;;-2.62;95.47;103094.81;5056203;28;20065;-74
2023/01/21 08:42:23;;;;;;;47.40;17.23;;;;;;;-2.61;94.84;103100.03;5057112;28;20060;-74
2023/01/21 08:44:49;;;;;;;47.10;16.70;;;;;;;-2.61;95.17;103104.22;5061261;28;20040;-74
2023/01/21 08:47:15;;;;;;;43.10;15.30;;;;;;;-2.61;94.83;103102.59;5055762;28;20040;-74
2023/01/21 08:49:40;;;;;;;41.43;15.10;;;;;;;-2.57;95.10;103107.88;5068058;28;20029;-74
2023/01/21 08:52:06;;;;;;;52.07;16.83;;;;;;;-2.56;95.52;103117.31;5062433;28;20051;-74
2023/01/21 08:54:31;;;;;;;47.93;16.33;;;;;;;-2.54;95.47;103113.16;5064207;28;20028;-74
2023/01/21 08:56:56;;;;;;;46.57;16.00;;;;;;;-2.52;96.10;103114.16;5054939;28;20067;-74
2023/01/21 08:59:27;;;;;;;49.23;16.53;;;;;;;-2.49;95.53;103114.34;5061174;28;20044;-74
2023/01/21 09:01:55;;;;;;;40.47;13.77;;;;;;;-2.47;95.44;103118.75;5068257;28;20078;-74
2023/01/21 09:04:20;;;;;;;38.07;13.17;;;;;;;-2.42;95.54;103121.63;5058421;28;20756;-74
2023/01/21 09:06:46;;;;;;;43.03;15.27;;;;;;;-2.39;96.09;103124.34;5063923;28;20518;-74
2023/01/21 09:09:11;;;;;;;43.37;14.77;;;;;;;-2.36;96.15;103124.53;5056311;28;20052;-74
2023/01/21 09:11:36;;;;;;;41.93;14.07;;;;;;;-2.35;95.60;103128.00;5061358;28;20066;-74
2023/01/21 09:14:03;;;;;;;40.27;14.20;;;;;;;-2.32;96.14;103134.16;5066664;28;20107;-74
2023/01/21 09:16:32;;;;;;;45.23;14.50;;;;;;;-2.28;95.38;103130.13;5046256;28;20078;-74
2023/01/21 09:18:58;;;;;;;43.43;14.63;;;;;;;-2.25;95.43;103129.47;5057618;28;20494;-74
2023/01/21 09:21:24;;;;;;;40.43;13.23;;;;;;;-2.21;95.63;103126.31;5055829;28;20411;-74
2023/01/21 09:23:49;;;;;;;41.00;14.10;;;;;;;-2.18;96.61;103121.41;5058782;28;20055;-74
2023/01/21 09:26:18;;;;;;;44.67;14.57;;;;;;;-2.11;95.40;103127.78;5057629;28;20043;-74
2023/01/21 09:28:49;;;;;;;41.40;13.57;;;;;;;-2.11;95.44;103128.69;5063614;28;20036;-74
2023/01/21 09:31:17;;;;;;;43.28;14.18;;;;;;;-2.08;95.32;103120.34;5055685;28;20546;-74
2023/01/21 09:33:46;;;;;;;48.27;15.10;;;;;;;-2.05;94.94;103134.16;5059731;28;20103;-74
2023/01/21 09:36:18;;;;;;;48.17;15.00;;;;;;;-2.01;95.50;103146.31;5059492;28;20473;-74
2023/01/21 09:38:44;;;;;;;43.33;13.82;;;;;;;-1.99;96.15;103139.66;5068879;28;20021;-74
2023/01/21 09:41:26;;;;;;;42.67;13.63;;;;;;;-1.94;95.12;103141.63;5056790;28;20033;-74
2023/01/21 09:43:58;;;;;;;43.67;14.00;;;;;;;-1.92;95.83;103151.13;5043727;28;20037;-74
2023/01/21 09:46:33;;;;;;;44.58;13.98;;;;;;;-1.89;95.06;103161.53;5038782;28;20039;-74
2023/01/21 09:49:02;;;;;;;45.20;14.80;;;;;;;-1.86;94.89;103165.94;5057074;28;20365;-74
2023/01/21 09:51:44;;;;;;;43.40;15.10;;;;;;;-1.84;95.08;103165.25;5054652;28;20029;-74
2023/01/21 09:54:45;;;;;;;49.47;15.90;;;;;;;-1.83;94.92;103167.03;5059497;28;20032;-74
2023/01/21 09:57:44;;;;;;;45.27;15.63;;;;;;;-1.78;95.25;103184.28;4992793;28;20023;-74
2023/01/21 10:00:24;;;;;;;44.03;14.63;;;;;;;-1.75;94.54;103174.28;5060485;28;20059;-74
2023/01/21 10:03:15;;;;;;;41.87;13.93;;;;;;;-1.71;95.52;103186.44;5058319;28;20043;-73
2023/01/21 10:06:15;;;;;;;42.63;13.83;;;;;;;-1.69;94.95;103185.75;5056506;28;20106;-74
2023/01/21 10:08:50;;;;;;;44.70;15.33;;;;;;;-1.62;95.35;103187.00;4990953;28;20563;-74
2023/01/21 10:11:52;;;;;;;43.17;14.57;;;;;;;-1.55;95.65;103194.28;5053063;28;20040;-74
2023/01/21 10:14:45;;;;;;;42.42;14.63;;;;;;;-1.48;95.29;103190.44;5058765;28;20040;-74
2023/01/21 10:17:20;;;;;;;45.40;15.17;;;;;;;-1.43;94.89;103186.50;5057708;28;20053;-74
2023/01/21 10:20:09;;;;;;;47.17;15.10;;;;;;;-1.37;94.58;103188.53;5056229;28;20036;-74
2023/01/21 10:22:36;;;;;;;45.53;14.40;;;;;;;-1.32;95.30;103178.59;5067299;28;20060;-74
2023/01/21 10:25:25;;;;;;;41.93;14.20;;;;;;;-1.27;94.88;103178.09;5054673;28;20388;-74
2023/01/21 10:27:51;;;;;;;44.03;14.57;;;;;;;-1.23;94.60;103177.50;5046795;28;20044;-74
2023/01/21 10:30:28;;;;;;;45.80;15.47;;;;;;;-1.17;94.97;103176.97;5058935;28;20135;-74
2023/01/21 10:32:54;;;;;;;43.20;14.33;;;;;;;-1.14;94.89;103182.28;5064124;28;20024;-74
2023/01/21 10:35:33;;;;;;;41.97;14.60;;;;;;;-1.09;94.74;103175.78;5061875;28;20032;-74
2023/01/21 10:38:08;;;;;;;42.07;13.97;;;;;;;-0.99;94.82;103176.31;5063168;28;20025;-74
2023/01/21 10:40:42;;;;;;;43.13;13.93;;;;;;;-0.91;94.60;103170.00;5059176;28;20510;-74
2023/01/21 10:43:15;;;;;;;41.13;14.47;;;;;;;-0.84;94.35;103172.13;5062418;28;20021;-74
2023/01/21 10:46:00;;;;;;;43.87;14.53;;;;;;;-0.73;94.36;103170.19;5066130;28;20376;-74
2023/01/21 10:48:51;;;;;;;42.43;14.23;;;;;;;-0.62;94.05;103163.16;5060162;28;20052;-74
2023/01/21 10:51:38;;;;;;;43.72;15.32;;;;;;;-0.59;94.11;103165.91;5068233;28;20052;-74
2023/01/21 10:54:22;;;;;;;50.93;16.03;;;;;;;-0.53;93.68;103165.38;5067269;28;20020;-74
2023/01/21 10:57:03;;;;;;;45.03;15.13;;;;;;;-0.47;93.72;103166.59;5068763;28;20033;-74
2023/01/21 10:59:32;;;;;;;44.97;14.87;;;;;;;-0.37;94.04;103159.47;5066743;28;20055;-74
2023/01/21 11:02:07;;;;;;;45.03;15.13;;;;;;;-0.30;93.70;103156.47;5067116;28;20039;-74
2023/01/21 11:04:34;;;;;;;38.93;13.67;;;;;;;-0.25;92.95;103155.06;5068762;28;20074;-74
2023/01/21 11:07:02;;;;;;;39.40;13.20;;;;;;;-0.24;92.92;103151.69;5064338;28;20024;-75
2023/01/21 11:09:31;;;;;;;39.73;14.00;;;;;;;-0.26;92.80;103153.28;5062134;28;20056;-74
2023/01/21 11:11:57;;;;;;;40.73;14.67;;;;;;;-0.31;92.28;103159.81;5068637;28;20028;-74
2023/01/21 11:14:25;;;;;;;42.60;14.63;;;;;;;-0.38;92.12;103157.72;5068314;28;20035;-73
2023/01/21 11:16:52;;;;;;;34.90;13.23;;;;;;;-0.40;92.66;103160.16;5068213;28;20440;-75
2023/01/21 11:19:30;;;;;;;42.90;15.70;;;;;;;-0.43;92.61;103152.34;5072028;28;20028;-75
2023/01/21 11:21:59;;;;;;;40.60;14.10;;;;;;;-0.49;92.59;103154.53;5066721;28;20040;-75